Monday, November 19, 2018, 2:13 AM EST
Back to Local

KBLM, Belmar-farmingdale

Location: Farmingdale, NJ, United States Lat: 40.183
Local Time: 2:13 AM EST ( 7:13 GMT) Lon: -74.133
Time Zone: US/Eastern Elev: 157 ft

Show me the last for .
Show Decoded

2018-11-19 01:56 METAR KBLM 190656Z AUTO 15004KT 10SM CLR 05/03 A3018 RMK AO2 SLP223 T00500028 =
2018-11-19 00:56 METAR KBLM 190556Z AUTO 00000KT 10SM CLR 02/01 A3019 RMK AO2 SLP229 T00220011
                 10061 20022 57017 FZRANO =
2018-11-18 23:56 METAR KBLM 190456Z AUTO 00000KT 10SM CLR 03/02 A3021 RMK AO2 SLP236 T00280017
                 400721011 =
2018-11-18 22:56 METAR KBLM 190356Z AUTO 16003KT 10SM CLR 03/02 A3022 RMK AO2 SLP240 T00330022 =
2018-11-18 21:56 METAR KBLM 190256Z AUTO 00000KT 10SM SCT048 04/02 A3024 RMK AO2 SLP246 T00440022
                 58009 =
2018-11-18 20:56 METAR KBLM 190156Z AUTO 00000KT 10SM BKN048 04/02 A3025 RMK AO2 SLP250 T00390022
                 =
2018-11-18 19:56 METAR KBLM 190056Z AUTO 00000KT 10SM CLR 05/03 A3026 RMK AO2 SLP254 T00500028 =
2018-11-18 19:26 METAR KBLM 190026Z AUTO 00000KT 10SM SCT025 06/03 A3027 RMK AO2 =
2018-11-18 18:56 METAR KBLM 182356Z AUTO 00000KT 10SM OVC025 06/03 A3027 RMK AO2 SLP255 T00610033
                 10072 20056 56010 =
2018-11-18 18:42 METAR KBLM 182342Z AUTO VRB03KT 10SM BKN025 OVC031 06/03 A3027 RMK AO2 =
2018-11-18 17:56 METAR KBLM 182256Z AUTO 11003KT 10SM OVC032 06/03 A3028 RMK AO2 SLP259 T00610028
                 =
2018-11-18 16:56 METAR KBLM 182156Z AUTO 09004KT 10SM OVC034 06/02 A3029 RMK AO2 SLP262 T00610017
                 =
2018-11-18 15:56 METAR KBLM 182056Z AUTO 11005KT 10SM OVC034 07/01 A3030 RMK AO2 SLP266 T00670006
                 56011 =
2018-11-18 14:56 METAR KBLM 181956Z AUTO 10006KT 10SM BKN034 07/01 A3031 RMK AO2 SLP268 T00670006
                 =
2018-11-18 13:56 METAR KBLM 181856Z AUTO 13005KT 10SM BKN048 07/M01 A3031 RMK AO2 SLP271
                 T00671006 =
2018-11-18 12:56 METAR KBLM 181756Z AUTO 13003KT 10SM OVC055 07/M01 A3033 RMK AO2 SLP277
                 T00671011 10067 21006 58022 =
2018-11-18 11:56 METAR KBLM 181656Z AUTO 00000KT 10SM OVC050 07/M02 A3036 RMK AO2 SLP285
                 T00671017 =
2018-11-18 10:56 METAR KBLM 181556Z AUTO VRB04KT 10SM SCT050 BKN120 06/M03 A3038 RMK AO2 SLP293
                 T00561028 =
2018-11-18 09:56 METAR KBLM 181456Z AUTO 03004KT 10SM SCT050 OVC110 04/M02 A3040 RMK AO2 SLP299
                 T00441017 50005 =
2018-11-18 08:56 METAR KBLM 181356Z AUTO 00000KT 10SM OVC110 04/M02 A3040 RMK AO2 SLP301
                 T00391022 =
2018-11-18 07:56 METAR KBLM 181256Z AUTO 01003KT 10SM CLR 02/01 A3039 RMK AO2 SLP298 T00170006
                 FZRANO =
2018-11-18 06:56 METAR KBLM 181156Z AUTO 00000KT 10SM CLR M01/M02 A3038 RMK AO2 SLP294 T10111022
                 10028 21011 53014 FZRANO =
2018-11-18 05:56 METAR KBLM 181056Z AUTO 00000KT 10SM BKN110 01/M02 A3036 RMK AO2 SLP288
                 T00061017 FZRANO =
2018-11-18 04:56 METAR KBLM 180956Z AUTO 25003KT 10SM CLR 01/M02 A3036 RMK AO2 SLP286 T00061017
                 FZRANO =
2018-11-18 03:56 METAR KBLM 180856Z AUTO 29003KT 10SM CLR 02/M01 A3034 RMK AO2 SLP280 T00171011
                 53009 FZRANO =
2018-11-18 02:56 METAR KBLM 180756Z AUTO 30003KT 10SM CLR 02/M01 A3033 RMK AO2 SLP275 T00171011
                 FZRANO =

Support USWX by starting your Amazon purchase here.